createdAt,value
2023-01-08T00:01:17.476Z,87.53
2023-01-08T00:03:45.106Z,86.84
2023-01-08T00:06:16.011Z,86.73
2023-01-08T00:08:44.044Z,86.36
2023-01-08T00:11:11.768Z,86.02
2023-01-08T00:13:39.393Z,85.73
2023-01-08T00:16:10.920Z,86.17
2023-01-08T00:18:38.762Z,86.56
2023-01-08T00:21:06.795Z,86.47
2023-01-08T00:23:34.299Z,86.64
2023-01-08T00:26:02.288Z,86.96
2023-01-08T00:28:29.763Z,87.12
2023-01-08T00:30:57.295Z,87.51
2023-01-08T00:33:26.038Z,87.46
2023-01-08T00:35:53.518Z,87.25
2023-01-08T00:38:20.930Z,87.94
2023-01-08T00:40:49.603Z,88.12
2023-01-08T00:43:16.991Z,87.71
2023-01-08T00:45:44.640Z,88.57
2023-01-08T00:48:12.457Z,88.41
2023-01-08T00:50:41.121Z,88.58
2023-01-08T00:53:08.639Z,88.22
2023-01-08T00:55:35.984Z,88.48
2023-01-08T00:58:03.341Z,88.94
2023-01-08T01:00:30.727Z,88.72
2023-01-08T01:02:59.262Z,88.53
2023-01-08T01:05:26.689Z,88.16
2023-01-08T01:07:55.453Z,87.57
2023-01-08T01:10:22.828Z,87.92
2023-01-08T01:12:50.615Z,87.71
2023-01-08T01:15:19.342Z,88.03
2023-01-08T01:17:47.685Z,87.03
2023-01-08T01:20:17.087Z,86.70
2023-01-08T01:22:44.923Z,86.28
2023-01-08T01:25:13.739Z,86.27
2023-01-08T01:27:41.119Z,86.35
2023-01-08T01:30:09.821Z,86.33
2023-01-08T01:32:37.173Z,85.89
2023-01-08T01:35:05.082Z,85.94
2023-01-08T01:37:32.752Z,86.16
2023-01-08T01:40:00.176Z,85.98
2023-01-08T01:42:45.650Z,85.82
2023-01-08T01:45:18.145Z,85.87
2023-01-08T01:47:48.505Z,86.43
2023-01-08T01:50:20.568Z,86.29
2023-01-08T01:52:54.795Z,85.87
2023-01-08T01:55:22.298Z,86.00
2023-01-08T01:57:59.194Z,86.60
2023-01-08T02:00:27.549Z,86.36
2023-01-08T02:02:56.689Z,86.20
2023-01-08T02:05:28.199Z,86.03
2023-01-08T02:08:02.357Z,86.35
2023-01-08T02:10:36.097Z,86.29
2023-01-08T02:13:09.186Z,86.25
2023-01-08T02:15:44.521Z,86.32
2023-01-08T02:18:18.870Z,86.14
2023-01-08T02:20:51.045Z,86.01
2023-01-08T02:23:27.687Z,86.49
2023-01-08T02:26:11.645Z,86.53
2023-01-08T02:28:43.411Z,87.19
2023-01-08T02:31:13.028Z,86.92
2023-01-08T02:33:40.526Z,86.93
2023-01-08T02:36:38.907Z,86.87
2023-01-08T02:39:17.885Z,87.11
2023-01-08T02:41:55.668Z,86.75
2023-01-08T02:44:30.922Z,86.61
2023-01-08T02:47:01.568Z,86.94
2023-01-08T02:49:34.614Z,87.20
2023-01-08T02:52:04.517Z,87.03
2023-01-08T02:54:35.252Z,87.17
2023-01-08T02:57:07.890Z,87.61
2023-01-08T02:59:38.659Z,87.90
2023-01-08T03:02:07.596Z,88.03
2023-01-08T03:04:38.782Z,87.79
2023-01-08T03:07:06.211Z,87.57
2023-01-08T03:09:33.796Z,87.82
2023-01-08T03:12:07.682Z,88.12
2023-01-08T03:14:41.563Z,87.94
2023-01-08T03:17:15.318Z,87.84
2023-01-08T03:19:45.436Z,87.73
2023-01-08T03:22:16.579Z,87.72
2023-01-08T03:24:48.286Z,88.02
2023-01-08T03:27:19.827Z,87.83
2023-01-08T03:29:50.239Z,88.13
2023-01-08T03:32:20.175Z,87.92
2023-01-08T03:34:51.015Z,88.21
2023-01-08T03:37:24.164Z,88.04
2023-01-08T03:39:55.899Z,87.81
2023-01-08T03:42:26.511Z,88.06
2023-01-08T03:44:53.918Z,88.32
2023-01-08T03:47:23.800Z,88.31
2023-01-08T03:49:53.638Z,88.07
2023-01-08T03:52:24.849Z,88.43
2023-01-08T03:54:52.775Z,88.48
2023-01-08T03:57:20.505Z,88.49
2023-01-08T03:59:49.436Z,88.43
2023-01-08T04:02:17.800Z,88.70
2023-01-08T04:04:45.357Z,88.48
2023-01-08T04:07:13.304Z,88.13
2023-01-08T04:09:40.708Z,87.88
2023-01-08T04:12:08.230Z,87.85
2023-01-08T04:14:35.634Z,87.90
2023-01-08T04:17:04.414Z,87.68
2023-01-08T04:19:31.911Z,87.45
2023-01-08T04:21:59.270Z,87.00
2023-01-08T04:24:26.672Z,86.86
2023-01-08T04:26:54.068Z,87.11
2023-01-08T04:29:21.514Z,86.88
2023-01-08T04:31:48.902Z,86.71
2023-01-08T04:34:17.582Z,86.42
2023-01-08T04:36:44.997Z,86.78
2023-01-08T04:39:12.793Z,86.42
2023-01-08T04:41:40.196Z,86.97
2023-01-08T04:44:07.569Z,87.07
2023-01-08T04:46:35.082Z,87.05
2023-01-08T04:49:02.471Z,87.11
2023-01-08T04:51:31.167Z,87.12
2023-01-08T04:53:58.541Z,87.87
2023-01-08T04:56:25.947Z,88.01
2023-01-08T04:58:53.438Z,87.82
2023-01-08T05:01:23.445Z,88.08
2023-01-08T05:03:54.627Z,88.16
2023-01-08T05:06:22.045Z,87.23
2023-01-08T05:08:50.720Z,88.01
2023-01-08T05:11:18.106Z,87.68
2023-01-08T05:13:48.813Z,87.54
2023-01-08T05:16:16.647Z,87.46
2023-01-08T05:18:44.367Z,87.18
2023-01-08T05:21:13.236Z,87.31
2023-01-08T05:23:40.920Z,87.53
2023-01-08T05:26:09.637Z,87.64
2023-01-08T05:28:37.016Z,87.85
2023-01-08T05:31:04.555Z,88.38
2023-01-08T05:33:32.659Z,88.08
2023-01-08T05:35:59.970Z,87.88
2023-01-08T05:38:27.322Z,88.45
2023-01-08T05:40:54.926Z,88.59
2023-01-08T05:43:23.609Z,88.17
2023-01-08T05:45:51.041Z,88.23
2023-01-08T05:48:18.458Z,88.41
2023-01-08T05:50:45.828Z,88.63
2023-01-08T05:53:13.217Z,88.73
2023-01-08T05:55:40.603Z,88.52
2023-01-08T05:58:07.983Z,89.00
2023-01-08T06:00:36.659Z,88.87
2023-01-08T06:03:04.133Z,89.17
2023-01-08T06:05:32.238Z,88.87
2023-01-08T06:07:59.705Z,88.80
2023-01-08T06:10:27.907Z,88.67
2023-01-08T06:12:55.372Z,87.89
2023-01-08T06:15:22.771Z,87.50
2023-01-08T06:17:51.436Z,87.47
2023-01-08T06:20:18.995Z,87.71
2023-01-08T06:22:46.389Z,87.87
2023-01-08T06:25:13.762Z,88.09
2023-01-08T06:27:41.137Z,87.83
2023-01-08T06:30:09.839Z,87.86
2023-01-08T06:32:37.230Z,87.48
2023-01-08T06:35:06.751Z,88.04
2023-01-08T06:37:34.093Z,87.66
2023-01-08T06:40:01.518Z,87.59
2023-01-08T06:42:28.925Z,88.29
2023-01-08T06:44:56.312Z,88.13
2023-01-08T06:47:23.681Z,88.79
2023-01-08T06:49:51.036Z,88.31
2023-01-08T06:52:19.722Z,88.97
2023-01-08T06:54:47.065Z,88.98
2023-01-08T06:57:14.428Z,88.20
2023-01-08T06:59:41.856Z,88.13
2023-01-08T07:02:14.143Z,87.88
2023-01-08T07:04:41.691Z,87.42
2023-01-08T07:07:09.485Z,87.68
2023-01-08T07:09:38.202Z,87.27
2023-01-08T07:12:06.013Z,87.24
2023-01-08T07:14:33.373Z,86.80
2023-01-08T07:17:00.717Z,86.44
2023-01-08T07:19:28.056Z,86.42
2023-01-08T07:21:55.418Z,86.54
2023-01-08T07:24:22.784Z,86.52
2023-01-08T07:26:51.467Z,86.29
2023-01-08T07:29:18.848Z,86.32
2023-01-08T07:31:46.277Z,86.08
2023-01-08T07:34:15.339Z,86.12
2023-01-08T07:36:43.129Z,85.53
2023-01-08T07:39:10.509Z,85.87
2023-01-08T07:41:37.907Z,85.92
2023-01-08T07:44:07.210Z,85.94
2023-01-08T07:46:34.619Z,85.59
2023-01-08T07:49:02.070Z,85.61
2023-01-08T07:51:29.763Z,86.07
2023-01-08T07:53:57.257Z,85.52
2023-01-08T07:56:25.722Z,85.11
2023-01-08T07:58:53.466Z,84.93
2023-01-08T08:01:22.304Z,85.30
2023-01-08T08:03:49.871Z,85.22
2023-01-08T08:06:17.248Z,84.99
2023-01-08T08:08:44.756Z,85.45
2023-01-08T08:11:12.239Z,85.02
2023-01-08T08:13:44.887Z,85.13
2023-01-08T08:16:13.357Z,84.96
2023-01-08T08:18:42.178Z,84.72
2023-01-08T08:21:09.548Z,84.88
2023-01-08T08:23:37.082Z,85.05
2023-01-08T08:26:05.343Z,84.45
2023-01-08T08:28:32.743Z,84.53
2023-01-08T08:31:00.196Z,84.80
2023-01-08T08:33:27.574Z,84.13
2023-01-08T08:35:56.259Z,84.26
2023-01-08T08:38:24.907Z,84.89
2023-01-08T08:40:52.280Z,84.47
2023-01-08T08:43:19.956Z,84.19
2023-01-08T08:45:47.403Z,83.88
2023-01-08T08:48:16.671Z,83.66
2023-01-08T08:50:44.369Z,83.14
2023-01-08T08:53:13.061Z,82.82
2023-01-08T08:55:40.508Z,81.95
2023-01-08T08:58:10.701Z,82.30
2023-01-08T09:00:38.220Z,81.85
2023-01-08T09:03:06.284Z,82.43
2023-01-08T09:05:36.924Z,82.54
2023-01-08T09:08:04.660Z,82.67
2023-01-08T09:10:33.387Z,82.54
2023-01-08T09:13:00.818Z,82.42
2023-01-08T09:15:28.227Z,82.16
2023-01-08T09:17:56.074Z,82.42
2023-01-08T09:20:23.939Z,82.46
2023-01-08T09:22:51.370Z,82.53
2023-01-08T09:25:19.207Z,82.83
2023-01-08T09:27:47.922Z,82.41
2023-01-08T09:30:15.449Z,82.83
2023-01-08T09:32:42.836Z,83.14
2023-01-08T09:35:10.742Z,82.85
2023-01-08T09:37:38.176Z,83.07
2023-01-08T09:40:06.551Z,82.76
2023-01-08T09:42:35.414Z,83.03
2023-01-08T09:45:05.091Z,82.53
2023-01-08T09:47:38.284Z,83.63
2023-01-08T09:50:10.844Z,83.31
2023-01-08T09:52:39.292Z,83.13
2023-01-08T09:55:13.469Z,83.28
2023-01-08T09:57:41.160Z,82.71
2023-01-08T10:00:17.157Z,82.45
2023-01-08T10:02:44.687Z,82.38
2023-01-08T10:05:14.637Z,82.00
2023-01-08T10:07:42.061Z,82.18
2023-01-08T10:10:18.231Z,82.33
2023-01-08T10:12:46.646Z,82.95
2023-01-08T10:15:18.687Z,82.26
2023-01-08T10:17:48.135Z,82.83
2023-01-08T10:20:17.218Z,82.62
2023-01-08T10:22:45.066Z,82.44
2023-01-08T10:25:14.481Z,83.00
2023-01-08T10:27:50.368Z,82.46
2023-01-08T10:30:22.947Z,82.37
2023-01-08T10:32:54.738Z,82.70
2023-01-08T10:35:25.331Z,82.62
2023-01-08T10:37:53.420Z,82.27
2023-01-08T10:40:23.991Z,82.31
2023-01-08T10:42:52.829Z,82.22
2023-01-08T10:45:24.256Z,81.57
2023-01-08T10:47:56.017Z,81.65
2023-01-08T10:50:26.532Z,81.70
2023-01-08T10:52:56.749Z,81.46
2023-01-08T10:55:26.772Z,81.75
2023-01-08T10:57:59.622Z,81.70
2023-01-08T11:00:30.668Z,81.33
2023-01-08T11:03:00.251Z,81.12
2023-01-08T11:05:35.723Z,80.92
2023-01-08T11:08:06.828Z,80.51
2023-01-08T11:10:35.633Z,80.85
2023-01-08T11:13:07.068Z,80.77
2023-01-08T11:15:38.938Z,80.46
2023-01-08T11:18:10.705Z,80.29
2023-01-08T11:20:41.888Z,80.51
2023-01-08T11:23:17.289Z,80.48
2023-01-08T11:25:49.774Z,79.53
2023-01-08T11:28:24.377Z,79.52
2023-01-08T11:31:00.888Z,79.46
2023-01-08T11:33:33.787Z,79.51
2023-01-08T11:36:05.630Z,79.52
2023-01-08T11:38:33.348Z,79.44
2023-01-08T11:41:13.967Z,79.27
2023-01-08T11:43:56.473Z,79.24
2023-01-08T11:46:38.254Z,79.12
2023-01-08T11:49:28.500Z,79.08
2023-01-08T11:52:10.024Z,78.86
2023-01-08T11:54:56.391Z,78.97
2023-01-08T11:57:42.012Z,79.01
2023-01-08T12:00:23.362Z,78.79
2023-01-08T12:02:55.572Z,79.11
2023-01-08T12:05:28.021Z,79.07
2023-01-08T12:08:01.475Z,78.94
2023-01-08T12:10:38.687Z,78.79
2023-01-08T12:13:23.385Z,78.73
2023-01-08T12:16:01.904Z,78.11
2023-01-08T12:18:56.734Z,77.61
2023-01-08T12:21:32.250Z,77.82
2023-01-08T12:24:23.171Z,77.58
2023-01-08T12:27:00.377Z,77.54
2023-01-08T12:29:43.474Z,77.08
2023-01-08T12:32:29.638Z,77.60
2023-01-08T12:35:02.754Z,76.76
2023-01-08T12:37:35.827Z,77.22
2023-01-08T12:40:12.896Z,77.04
2023-01-08T12:42:47.203Z,77.20
2023-01-08T12:45:22.926Z,77.13
2023-01-08T12:47:57.657Z,77.22
2023-01-08T12:50:43.730Z,76.85
2023-01-08T12:53:20.961Z,77.15
2023-01-08T12:55:59.605Z,76.31
2023-01-08T12:58:35.346Z,76.47
2023-01-08T13:01:16.375Z,75.82
2023-01-08T13:03:45.605Z,76.23
2023-01-08T13:06:16.781Z,76.52
2023-01-08T13:08:49.829Z,76.71
2023-01-08T13:11:26.711Z,76.35
2023-01-08T13:14:01.407Z,76.08
2023-01-08T13:16:29.076Z,75.87
2023-01-08T13:18:58.084Z,75.67
2023-01-08T13:21:33.810Z,75.67
2023-01-08T13:24:03.751Z,75.76
2023-01-08T13:26:33.039Z,75.62
2023-01-08T13:29:25.086Z,75.91
2023-01-08T13:31:56.635Z,76.27
2023-01-08T13:34:36.956Z,76.10
2023-01-08T13:37:11.415Z,76.34
2023-01-08T13:39:44.025Z,76.17
2023-01-08T13:42:24.181Z,76.09
2023-01-08T13:44:53.392Z,76.24
2023-01-08T13:47:28.568Z,76.37
2023-01-08T13:49:56.999Z,76.37
2023-01-08T13:52:42.170Z,76.65
2023-01-08T13:55:17.137Z,76.27
2023-01-08T13:57:49.365Z,76.17
2023-01-08T14:00:24.719Z,75.85
2023-01-08T14:02:54.933Z,76.26
2023-01-08T14:05:27.811Z,76.81
2023-01-08T14:07:56.846Z,77.17
2023-01-08T14:10:25.526Z,77.56
2023-01-08T14:12:53.382Z,78.15
2023-01-08T14:15:26.532Z,79.26
2023-01-08T14:17:54.913Z,79.31
2023-01-08T14:20:29.909Z,79.89
2023-01-08T14:22:58.879Z,80.68
2023-01-08T14:25:26.518Z,80.83
2023-01-08T14:27:59.543Z,81.81
2023-01-08T14:30:29.053Z,82.25
2023-01-08T14:32:58.232Z,82.53
2023-01-08T14:35:32.515Z,82.99
2023-01-08T14:38:02.987Z,83.49
2023-01-08T14:40:33.925Z,83.95
2023-01-08T14:43:08.668Z,84.28
2023-01-08T14:45:38.614Z,86.24
2023-01-08T14:48:17.597Z,86.45
2023-01-08T14:50:54.649Z,86.50
2023-01-08T14:53:28.483Z,86.25
2023-01-08T14:55:57.871Z,86.75
2023-01-08T14:58:27.143Z,87.45
2023-01-08T15:00:58.443Z,87.86
2023-01-08T15:03:34.871Z,87.65
2023-01-08T15:06:02.704Z,87.43
2023-01-08T15:08:37.005Z,87.16
2023-01-08T15:11:06.842Z,86.78
2023-01-08T15:13:37.869Z,86.37
2023-01-08T15:16:10.929Z,85.71
2023-01-08T15:18:44.196Z,85.97
2023-01-08T15:21:11.782Z,86.02
2023-01-08T15:23:43.739Z,85.65
2023-01-08T15:26:12.446Z,85.57
2023-01-08T15:28:45.596Z,85.48
2023-01-08T15:31:13.033Z,85.39
2023-01-08T15:33:40.475Z,85.07
2023-01-08T15:36:08.169Z,84.68
2023-01-08T15:38:35.540Z,84.48
2023-01-08T15:41:04.210Z,84.17
2023-01-08T15:43:44.962Z,84.81
2023-01-08T15:46:12.644Z,84.14
2023-01-08T15:48:40.026Z,83.91
2023-01-08T15:51:07.586Z,83.83
2023-01-08T15:53:34.984Z,84.39
2023-01-08T15:56:03.799Z,83.92
2023-01-08T15:58:31.432Z,83.79
2023-01-08T16:00:58.821Z,84.32
2023-01-08T16:03:26.567Z,84.06
2023-01-08T16:05:53.961Z,83.77
2023-01-08T16:08:21.349Z,83.85
2023-01-08T16:10:53.261Z,83.85
2023-01-08T16:13:21.977Z,83.62
2023-01-08T16:15:49.413Z,83.89
2023-01-08T16:18:17.179Z,83.50
2023-01-08T16:20:44.582Z,84.19
2023-01-08T16:23:12.465Z,83.99
2023-01-08T16:25:40.540Z,84.77
2023-01-08T16:28:08.350Z,84.72
2023-01-08T16:30:37.166Z,85.59
2023-01-08T16:33:04.596Z,85.07
2023-01-08T16:35:31.968Z,85.22
2023-01-08T16:37:59.378Z,85.40
2023-01-08T16:40:26.765Z,85.16
2023-01-08T16:42:54.143Z,84.92
2023-01-08T16:45:21.553Z,84.44
2023-01-08T16:47:50.645Z,84.16
2023-01-08T16:50:18.109Z,83.53
2023-01-08T16:52:45.515Z,83.69
2023-01-08T16:55:12.865Z,83.93
2023-01-08T16:57:40.239Z,83.45
2023-01-08T17:00:08.977Z,84.35
2023-01-08T17:02:36.419Z,83.89
2023-01-08T17:05:06.064Z,83.57
2023-01-08T17:07:35.139Z,83.93
2023-01-08T17:10:02.734Z,83.96
2023-01-08T17:12:31.321Z,83.79
2023-01-08T17:14:58.709Z,83.59
2023-01-08T17:17:26.095Z,83.53
2023-01-08T17:20:22.361Z,83.78
2023-01-08T17:22:51.174Z,83.97
2023-01-08T17:25:18.552Z,83.86
2023-01-08T17:27:45.987Z,84.16
2023-01-08T17:30:14.784Z,83.73
2023-01-08T17:32:42.607Z,83.52
2023-01-08T17:35:10.376Z,83.59
2023-01-08T17:37:38.011Z,83.81
2023-01-08T17:40:08.271Z,83.67
2023-01-08T17:42:35.644Z,83.52
2023-01-08T17:45:05.605Z,83.46
2023-01-08T17:47:33.139Z,83.44
2023-01-08T17:50:02.086Z,83.87
2023-01-08T17:52:29.935Z,84.12
2023-01-08T17:54:57.332Z,83.96
2023-01-08T17:57:26.430Z,84.46
2023-01-08T17:59:53.920Z,84.47
2023-01-08T18:02:21.460Z,85.07
2023-01-08T18:04:49.240Z,85.50
2023-01-08T18:07:16.652Z,86.05
2023-01-08T18:09:44.748Z,86.22
2023-01-08T18:12:12.545Z,86.78
2023-01-08T18:14:41.891Z,87.52
2023-01-08T18:17:09.333Z,88.12
2023-01-08T18:19:36.738Z,87.82
2023-01-08T18:22:04.150Z,87.69
2023-01-08T18:24:31.590Z,87.95
2023-01-08T18:26:59.058Z,88.32
2023-01-08T18:29:26.451Z,88.20
2023-01-08T18:31:55.256Z,89.05
2023-01-08T18:34:22.714Z,89.03
2023-01-08T18:36:50.134Z,89.09
2023-01-08T18:39:17.526Z,89.57
2023-01-08T18:42:02.319Z,89.02
2023-01-08T18:44:29.677Z,89.56
2023-01-08T18:46:58.429Z,89.54
2023-01-08T18:49:27.451Z,89.51
2023-01-08T18:51:54.829Z,89.56
2023-01-08T18:54:22.180Z,89.00
2023-01-08T18:56:51.064Z,89.69
2023-01-08T18:59:18.519Z,89.80
2023-01-08T19:01:46.022Z,89.71
2023-01-08T19:04:18.357Z,89.38
2023-01-08T19:06:45.872Z,89.57
2023-01-08T19:09:13.283Z,90.09
2023-01-08T19:11:42.200Z,90.09
2023-01-08T19:14:11.629Z,90.02
2023-01-08T19:16:39.034Z,89.92
2023-01-08T19:19:06.886Z,89.69
2023-01-08T19:21:36.463Z,89.88
2023-01-08T19:24:03.830Z,89.72
2023-01-08T19:26:31.305Z,89.60
2023-01-08T19:28:58.708Z,90.18
2023-01-08T19:31:26.176Z,90.30
2023-01-08T19:33:53.635Z,90.10
2023-01-08T19:36:21.197Z,89.97
2023-01-08T19:38:50.048Z,89.72
2023-01-08T19:41:35.187Z,89.42
2023-01-08T19:44:02.580Z,89.30
2023-01-08T19:46:30.722Z,89.52
2023-01-08T19:48:59.108Z,89.63
2023-01-08T19:51:27.539Z,89.54
2023-01-08T19:53:57.985Z,89.15
2023-01-08T19:56:25.675Z,89.42
2023-01-08T19:58:53.145Z,89.14
2023-01-08T20:01:22.802Z,89.22
2023-01-08T20:03:50.759Z,89.37
2023-01-08T20:06:20.694Z,89.12
2023-01-08T20:08:48.206Z,89.24
2023-01-08T20:11:18.709Z,88.83
2023-01-08T20:13:46.318Z,89.21
2023-01-08T20:16:16.108Z,89.38
2023-01-08T20:18:43.989Z,88.90
2023-01-08T20:21:15.333Z,89.17
2023-01-08T20:23:43.848Z,89.17
2023-01-08T20:26:14.979Z,88.95
2023-01-08T20:28:45.176Z,89.01
2023-01-08T20:31:14.764Z,88.54
2023-01-08T20:33:43.003Z,88.15
2023-01-08T20:36:11.725Z,88.40
2023-01-08T20:38:39.304Z,88.08
2023-01-08T20:41:06.831Z,88.00
2023-01-08T20:43:34.691Z,87.85
2023-01-08T20:46:04.577Z,87.82
2023-01-08T20:48:37.064Z,87.26
2023-01-08T20:51:12.572Z,87.35
2023-01-08T20:53:40.465Z,87.25
2023-01-08T20:56:10.487Z,87.60
2023-01-08T20:58:39.630Z,87.44
2023-01-08T21:01:10.255Z,86.83
2023-01-08T21:03:38.604Z,87.28
2023-01-08T21:06:07.622Z,86.88
2023-01-08T21:08:35.508Z,86.95
2023-01-08T21:11:05.348Z,86.83
2023-01-08T21:13:33.372Z,86.20
2023-01-08T21:16:01.908Z,86.90
2023-01-08T21:18:31.001Z,86.74
2023-01-08T21:20:59.900Z,87.00
2023-01-08T21:23:27.888Z,87.42
2023-01-08T21:25:56.461Z,87.17
2023-01-08T21:28:24.145Z,87.12
2023-01-08T21:30:51.562Z,86.73
2023-01-08T21:33:19.670Z,86.74
2023-01-08T21:35:48.756Z,86.95
2023-01-08T21:38:16.120Z,87.26
2023-01-08T21:40:43.479Z,86.78
2023-01-08T21:43:30.756Z,86.77
2023-01-08T22:00:31.270Z,88.52
2023-01-08T22:02:58.955Z,88.22
2023-01-08T22:05:26.735Z,88.18
2023-01-08T22:07:54.309Z,88.50
2023-01-08T22:10:21.841Z,88.27
2023-01-08T22:12:49.260Z,88.48
2023-01-08T22:15:16.867Z,88.03
2023-01-08T22:17:45.767Z,88.24
2023-01-08T22:20:13.778Z,88.30
2023-01-08T22:22:42.464Z,88.20
2023-01-08T22:25:10.249Z,88.62
2023-01-08T22:27:37.749Z,87.94
2023-01-08T22:30:08.392Z,88.20
2023-01-08T22:32:35.925Z,87.90
2023-01-08T22:35:04.888Z,88.39
2023-01-08T22:37:32.270Z,88.41
2023-01-08T22:40:00.667Z,88.35
2023-01-08T22:42:28.083Z,88.44
2023-01-08T22:44:55.503Z,88.07
2023-01-08T22:47:22.913Z,88.32
2023-01-08T22:49:50.580Z,88.20
2023-01-08T22:52:19.328Z,87.87
2023-01-08T22:54:46.797Z,87.97
2023-01-08T22:57:14.234Z,87.92
2023-01-08T22:59:41.605Z,87.56
2023-01-08T23:02:08.985Z,87.31
2023-01-08T23:04:36.351Z,87.50
2023-01-08T23:07:03.891Z,87.17
2023-01-08T23:09:32.573Z,86.93
2023-01-08T23:12:01.779Z,86.94
2023-01-08T23:14:29.641Z,87.26
2023-01-08T23:16:56.988Z,87.16
2023-01-08T23:19:24.377Z,86.45
2023-01-08T23:21:51.730Z,86.75
2023-01-08T23:24:19.112Z,86.65
2023-01-08T23:26:47.802Z,86.78
2023-01-08T23:29:15.277Z,86.68
2023-01-08T23:31:44.097Z,86.62
2023-01-08T23:34:11.815Z,86.26
2023-01-08T23:36:40.621Z,86.38
2023-01-08T23:39:09.185Z,86.18
2023-01-08T23:41:36.574Z,86.42
2023-01-08T23:44:07.353Z,86.38
2023-01-08T23:46:35.299Z,85.87
2023-01-08T23:49:02.910Z,86.29
2023-01-08T23:51:30.492Z,85.97
2023-01-08T23:53:58.018Z,86.11
2023-01-08T23:56:25.831Z,86.23
2023-01-08T23:58:53.842Z,86.58
